Belle Plaine, MN

4:45 AM CST on November 22, 2014 (GMT -0600)
Faxon TWP | Change Station
CLOSE
Current Station
Personal Weather Station
Location: Belle Plaine, MN
Elevation: 958 ft
Nearby Weather Stations

Elev 958 ft 44.64 °N, 93.83 °W | Updated 8 minutes ago

Mostly Cloudy
Mostly Cloudy
35.8 °F
Feels Like 29 °F
N
9.0
Wind Variable Wind from SSW
Gusts 14.0 mph

Today
High -- | Low -- °F
--% Chance of Precip.
Yesterday
High -- | Low -- °F
Precip. -- in
7:21 AM 4:41 PM
Waning Crescent, 0% visible
Pressure 29.77 in
Visibility 3.0 miles
Clouds Clear
Windchill 29 °F
Dew Point 34 °F
Humidity 92%
Rainfall 0.00 in
Snow Depth Not available.
UV 0.0 out of 12
Pollen .10 out of 12
Air Quality Not available.
Flu Activity Not available.
METAR KGYL 221034Z AUTO 19006KT 3SM BR CLR 00/00 A2977 RMK AO2 T00001002

More Conditions Fewer Conditions

Pressure 29.77 in
Visibility 3.0 miles
Clouds Clear
Windchill 29 °F
Dew Point 34 °F
Humidity 92%
Rainfall 0.00 in
Snow Depth Not available.
UV 0.0 out of 12
Pollen .10 out of 12
Air Quality Not available.
Flu Activity Not available.
METAR KGYL 221034Z AUTO 19006KT 3SM BR CLR 00/00 A2977 RMK AO2 T00001002

More Conditions Fewer Conditions

10-Day Weather Forecast

Almanac

Astronomy

Nov. 22, 2014 Rise Set
Actual Time
Civil Twilight
Nautical Twilight
Astronomical Twilight
Moon
Length of Visible Light
Length of Day
Tomorrow will be .
, % of the Moon is Illuminated

Today's Extremes

State Highs State Lows

Community

WunderPhotos

Upload Photos

1,772,805 photos uploaded!

WunderBlogs® & News

Nearby

Air Quality

  Air Quality AQ Index Pollutant
Not available.

Snow Depth

Station Depth Elevation

Earthquake Activity

City Distance Mag. Time & Date
Minimum magnitude displayed is 2.5.

Coastal Water Temperatures

Place Temperature

Nearby Weather Stations